CheckWX is a tool to help pilots better visualize weather data.  It is not intended as a substitute for an official pre-flight weather briefing.

09:31:04 UTC

KMGN METAR
Harbor Springs Airport
Harbor Springs, Michigan, USA
Current

15 mins ago

KMGN 200916Z AUTO 06005KT 10SM OVC023 M10/M11 A3032 RMK AO2 T11001116
Observed
Feb-20 @ 09:16 UTC
Wind
  • 060° at 5 KTS
Visibility
16,093 meters
Flight Rules
MVFR
Cloud Levels
  • Overcast at 2,300' AGL
Temperature
-10°C / 14°F
Dewpoint
-12°C / 10°F
Humidity
85%
Altimeter
30.32" Hg
Pressure
1026.72 hPa
Previous

36 mins ago

KMGN 200855Z AUTO 06004KT 10SM OVC023 M11/M13 A3034 RMK AO2 T11161131
Observed
Feb-20 @ 08:55 UTC
Wind
  • 060° at 4 KTS
Visibility
16,093 meters
Flight Rules
MVFR
Cloud Levels
  • Overcast at 2,300' AGL
Temperature
-12°C / 10°F
Dewpoint
-13°C / 9°F
Humidity
92%
Altimeter
30.34" Hg
Pressure
1027.42 hPa
Previous

56 mins ago

KMGN 200835Z AUTO 07004KT 10SM OVC023 M12/M13 A3036 RMK AO2 T11211136
Observed
Feb-20 @ 08:35 UTC
Wind
  • 070° at 4 KTS
Visibility
16,093 meters
Flight Rules
MVFR
Cloud Levels
  • Overcast at 2,300' AGL
Temperature
-12°C / 10°F
Dewpoint
-14°C / 7°F
Humidity
85%
Altimeter
30.36" Hg
Pressure
1028.12 hPa